Airport details for: LRTR (Romania)

Metar

LRTR 301030Z 01005KT 280V050 9999 FEW028 14/07 Q1018 R11/290095 NOSIG

General details

ICAO: LRTR
IATA: TSR
Name (city): Traian Vuia
Major:
Country: Romania
vACC: vACC Romania
Description:

Timisoara 

Scenery links:
FS9 scenery: Download
FSX/P3D scenery: Download
XP scenery: Download
Elevation: 348 ft.
Transition altitude: 9000 ft.
MSA: 11400 ft.
Latitude: 45.809833
Longitude: 21.337872
LRTR Charts
LRTR Notams
LRTR Online stations

Runways

Number Course Length Elevation Lat Lon ILS ILS freq ILS FAC GP
11 106° 11483ft / 3500 m 340ft 45.815139 21.316756 110.9 106° 3.0°
29 286° 11483ft / 3500 m 343ft 45.804528 21.358989 109.3 286° 3.0°